createdAt,value
2019-04-14T00:00:42.847Z,13.80
2019-04-14T00:01:43.411Z,14.90
2019-04-14T00:02:42.876Z,14.90
2019-04-14T00:03:43.294Z,12.30
2019-04-14T00:04:42.907Z,14.00
2019-04-14T00:05:43.025Z,15.90
2019-04-14T00:06:44.028Z,13.30
2019-04-14T00:07:42.945Z,12.30
2019-04-14T00:08:43.750Z,16.00
2019-04-14T00:09:43.153Z,15.10
2019-04-14T00:10:44.043Z,15.60
2019-04-14T00:11:43.619Z,15.60
2019-04-14T00:12:43.018Z,15.20
2019-04-14T00:13:43.500Z,15.90
2019-04-14T00:14:43.038Z,13.30
2019-04-14T00:15:46.818Z,12.60
2019-04-14T00:16:43.069Z,14.40
2019-04-14T00:17:43.476Z,12.90
2019-04-14T00:18:43.090Z,12.10
2019-04-14T00:19:43.470Z,13.30
2019-04-14T00:20:43.119Z,13.80
2019-04-14T00:21:43.268Z,16.20
2019-04-14T00:22:43.145Z,14.30
2019-04-14T00:23:43.468Z,14.90
2019-04-14T00:24:43.174Z,16.80
2019-04-14T00:25:43.373Z,15.10
2019-04-14T00:26:44.429Z,14.50
2019-04-14T00:27:43.271Z,14.50
2019-04-14T00:28:43.228Z,13.90
2019-04-14T00:29:43.594Z,14.10
2019-04-14T00:30:43.254Z,15.60
2019-04-14T00:31:43.319Z,13.10
2019-04-14T00:32:44.350Z,19.40
2019-04-14T00:33:43.294Z,16.10
2019-04-14T00:34:44.193Z,14.90
2019-04-14T00:35:43.320Z,15.40
2019-04-14T00:36:43.800Z,14.70
2019-04-14T00:37:44.403Z,19.00
2019-04-14T00:38:43.448Z,17.20
2019-04-14T00:39:44.316Z,17.20
2019-04-14T00:40:43.449Z,16.00
2019-04-14T00:41:48.835Z,16.90
2019-04-14T00:42:43.469Z,13.70
2019-04-14T00:43:43.893Z,13.90
2019-04-14T00:44:43.520Z,16.60
2019-04-14T00:45:48.877Z,16.20
2019-04-14T00:46:43.515Z,14.50
2019-04-14T00:47:56.744Z,13.30
2019-04-14T00:48:43.505Z,15.10
2019-04-14T00:49:44.067Z,13.80
2019-04-14T00:50:43.527Z,16.10
2019-04-14T00:51:44.055Z,15.10
2019-04-14T00:52:43.701Z,15.80
2019-04-14T00:53:44.562Z,14.40
2019-04-14T00:54:43.581Z,13.60
2019-04-14T00:55:44.341Z,15.40
2019-04-14T00:56:43.607Z,14.00
2019-04-14T00:57:44.154Z,17.00
2019-04-14T00:58:43.636Z,15.80
2019-04-14T00:59:44.050Z,16.10
2019-04-14T01:00:43.668Z,14.50
2019-04-14T01:01:43.775Z,14.70
2019-04-14T01:02:43.693Z,16.30
2019-04-14T01:03:43.755Z,13.40
2019-04-14T01:04:44.696Z,16.20
2019-04-14T01:05:43.757Z,16.00
2019-04-14T01:06:44.726Z,16.00
2019-04-14T01:07:43.758Z,15.30
2019-04-14T01:08:44.546Z,15.20
2019-04-14T01:09:44.215Z,13.60
2019-04-14T01:10:43.797Z,17.50
2019-04-14T01:11:44.363Z,17.10
2019-04-14T01:12:43.826Z,16.10
2019-04-14T01:13:44.037Z,16.90
2019-04-14T01:14:43.851Z,15.00
2019-04-14T01:15:53.714Z,15.80
2019-04-14T01:16:45.099Z,17.50
2019-04-14T01:17:43.949Z,13.00
2019-04-14T01:18:45.020Z,14.40
2019-04-14T01:19:43.940Z,17.10
2019-04-14T01:20:44.885Z,16.60
2019-04-14T01:21:43.947Z,16.60
2019-04-14T01:22:44.573Z,16.20
2019-04-14T01:23:43.975Z,18.20
2019-04-14T01:24:44.702Z,15.90
2019-04-14T01:25:45.233Z,16.80
2019-04-14T01:26:44.245Z,16.30
2019-04-14T01:27:44.939Z,16.10
2019-04-14T01:28:44.085Z,16.20
2019-04-14T01:29:44.829Z,19.10
2019-04-14T01:30:44.066Z,17.60
2019-04-14T01:31:44.640Z,16.50
2019-04-14T01:32:44.095Z,15.20
2019-04-14T01:33:44.449Z,18.40
2019-04-14T01:34:44.118Z,16.40
2019-04-14T01:35:44.391Z,14.80
2019-04-14T01:36:45.240Z,16.30
2019-04-14T01:37:44.196Z,18.40
2019-04-14T01:38:45.005Z,15.50
2019-04-14T01:39:44.186Z,16.00
2019-04-14T01:40:44.559Z,16.40
2019-04-14T01:41:44.213Z,17.80
2019-04-14T01:42:44.273Z,16.50
2019-04-14T01:43:45.168Z,18.60
2019-04-14T01:44:44.254Z,16.20
2019-04-14T01:45:46.089Z,17.00
2019-04-14T01:46:45.514Z,17.80
2019-04-14T01:47:44.522Z,16.00
2019-04-14T01:48:45.384Z,17.70
2019-04-14T01:49:44.373Z,16.90
2019-04-14T01:50:45.174Z,16.00
2019-04-14T01:51:44.348Z,18.80
2019-04-14T01:52:44.357Z,18.90
2019-04-14T01:53:44.615Z,18.20
2019-04-14T01:54:45.281Z,15.90
2019-04-14T01:55:44.402Z,17.20
2019-04-14T01:56:44.987Z,16.40
2019-04-14T01:57:44.429Z,19.20
2019-04-14T01:58:44.713Z,18.50
2019-04-14T01:59:44.455Z,18.10
2019-04-14T02:00:44.549Z,16.10
2019-04-14T02:01:45.477Z,19.10
2019-04-14T02:02:44.494Z,15.90
2019-04-14T02:03:45.480Z,15.90
2019-04-14T02:04:44.522Z,17.00
2019-04-14T02:05:45.316Z,17.30
2019-04-14T02:06:44.546Z,17.00
2019-04-14T02:07:45.172Z,17.30
2019-04-14T02:08:45.728Z,17.10
2019-04-14T02:09:44.711Z,16.90
2019-04-14T02:10:45.519Z,18.40
2019-04-14T02:11:44.614Z,16.30
2019-04-14T02:12:45.232Z,15.60
2019-04-14T02:13:44.640Z,20.00
2019-04-14T02:14:45.183Z,17.50
2019-04-14T02:15:44.668Z,19.00
2019-04-14T02:16:50.415Z,20.50
2019-04-14T02:17:45.908Z,19.20
2019-04-14T02:18:44.897Z,20.60
2019-04-14T02:19:45.877Z,20.10
2019-04-14T02:20:44.812Z,22.40
2019-04-14T02:21:45.634Z,17.00
2019-04-14T02:22:44.761Z,18.70
2019-04-14T02:23:45.353Z,18.30
2019-04-14T02:24:45.907Z,19.70
2019-04-14T02:25:45.055Z,17.70
2019-04-14T02:26:45.820Z,19.90
2019-04-14T02:27:45.067Z,17.20
2019-04-14T02:28:46.060Z,14.60
2019-04-14T02:29:45.089Z,16.90
2019-04-14T02:30:55.652Z,17.20
2019-04-14T02:32:09.857Z,14.80
2019-04-14T02:33:17.226Z,16.70
2019-04-14T02:34:07.962Z,17.40
2019-04-14T02:35:16.731Z,18.50
2019-04-14T02:36:21.682Z,19.30
2019-04-14T02:37:10.808Z,17.90
2019-04-14T02:38:34.228Z,18.70
2019-04-14T02:39:13.860Z,16.50
2019-04-14T02:40:18.144Z,19.90
2019-04-14T02:42:17.580Z,19.10
2019-04-14T02:43:19.732Z,18.50
2019-04-14T02:44:20.813Z,18.50
2019-04-14T02:45:19.125Z,18.80
2019-04-14T02:46:12.189Z,17.00
2019-04-14T02:47:38.874Z,18.10
2019-04-14T02:48:35.392Z,16.00
2019-04-14T02:49:29.460Z,17.60
2019-04-14T02:51:15.331Z,18.10
2019-04-14T02:52:11.952Z,18.00
2019-04-14T02:53:18.148Z,18.80
2019-04-14T02:54:13.637Z,15.60
2019-04-14T02:55:23.615Z,18.20
2019-04-14T02:56:15.816Z,17.10
2019-04-14T02:58:16.101Z,16.30
2019-04-14T03:00:19.189Z,15.80
2019-04-14T03:01:17.206Z,16.70
2019-04-14T03:03:15.942Z,19.10
2019-04-14T03:04:13.015Z,16.00
2019-04-14T03:05:11.205Z,16.70
2019-04-14T03:07:16.600Z,16.80
2019-04-14T03:08:08.312Z,18.10
2019-04-14T03:10:16.335Z,18.30
2019-04-14T03:11:09.749Z,16.40
2019-04-14T03:12:11.309Z,19.50
2019-04-14T03:13:15.753Z,16.90
2019-04-14T03:14:30.819Z,15.80
2019-04-14T03:15:13.066Z,16.00
2019-04-14T03:16:17.859Z,15.90
2019-04-14T03:18:26.285Z,15.00
2019-04-14T03:19:06.618Z,15.80
2019-04-14T03:21:14.012Z,18.20
2019-04-14T03:22:26.805Z,13.80
2019-04-14T03:23:21.238Z,15.50
2019-04-14T03:25:03.013Z,16.10
2019-04-14T03:26:08.328Z,16.50
2019-04-14T03:27:18.529Z,16.70
2019-04-14T03:28:11.735Z,16.40
2019-04-14T03:29:06.785Z,18.40
2019-04-14T03:30:33.403Z,16.00
2019-04-14T03:32:32.291Z,16.90
2019-04-14T03:33:49.008Z,16.60
2019-04-14T03:35:47.703Z,14.90
2019-04-14T03:36:43.935Z,16.30
2019-04-14T03:38:13.200Z,15.00
2019-04-14T03:39:17.399Z,18.50
2019-04-14T03:40:09.980Z,16.50
2019-04-14T03:41:16.691Z,16.20
2019-04-14T03:42:21.378Z,15.20
2019-04-14T03:43:25.527Z,15.80
2019-04-14T03:44:10.008Z,15.60
2019-04-14T03:45:22.230Z,16.40
2019-04-14T03:46:17.148Z,14.70
2019-04-14T03:47:13.504Z,18.10
2019-04-14T03:50:17.246Z,16.90
2019-04-14T03:52:19.458Z,14.90
2019-04-14T03:53:18.796Z,17.90
2019-04-14T03:54:03.265Z,18.30
2019-04-14T03:55:01.226Z,17.60
2019-04-14T03:55:52.161Z,16.90
2019-04-14T03:56:46.702Z,16.00
2019-04-14T03:57:46.000Z,15.80
2019-04-14T03:58:46.555Z,18.70
2019-04-14T03:59:46.029Z,19.40
2019-04-14T04:00:46.532Z,17.80
2019-04-14T04:01:46.056Z,17.70
2019-04-14T04:02:46.690Z,18.70
2019-04-14T04:03:46.081Z,17.50
2019-04-14T04:04:46.696Z,18.90
2019-04-14T04:05:46.111Z,17.70
2019-04-14T04:06:46.387Z,18.00
2019-04-14T04:07:47.419Z,17.10
2019-04-14T04:08:46.463Z,20.30
2019-04-14T04:09:46.468Z,17.90
2019-04-14T04:10:46.476Z,18.70
2019-04-14T04:11:46.185Z,19.40
2019-04-14T04:12:46.518Z,18.60
2019-04-14T04:13:46.211Z,16.60
2019-04-14T04:14:46.415Z,19.30
2019-04-14T04:15:46.238Z,19.80
2019-04-14T04:16:46.263Z,18.90
2019-04-14T04:17:47.203Z,19.60
2019-04-14T04:18:56.228Z,19.10
2019-04-14T04:19:47.021Z,18.50
2019-04-14T04:20:46.304Z,20.10
2019-04-14T04:21:46.621Z,23.40
2019-04-14T04:22:47.557Z,19.50
2019-04-14T04:23:46.813Z,18.50
2019-04-14T04:24:47.489Z,19.20
2019-04-14T04:25:46.574Z,19.60
2019-04-14T04:26:47.237Z,18.90
2019-04-14T04:27:46.392Z,20.70
2019-04-14T04:28:47.169Z,18.30
2019-04-14T04:29:46.416Z,18.50
2019-04-14T04:30:46.996Z,17.20
2019-04-14T04:31:46.443Z,17.30
2019-04-14T04:32:46.914Z,17.60
2019-04-14T04:33:46.471Z,17.10
2019-04-14T04:34:46.649Z,22.00
2019-04-14T04:35:46.494Z,16.90
2019-04-14T04:36:46.508Z,19.30
2019-04-14T04:37:47.577Z,18.40
2019-04-14T04:38:46.532Z,17.40
2019-04-14T04:39:47.488Z,17.10
2019-04-14T04:40:46.560Z,17.60
2019-04-14T04:41:47.237Z,19.10
2019-04-14T04:42:46.590Z,19.50
2019-04-14T04:43:47.340Z,16.70
2019-04-14T04:44:46.614Z,20.60
2019-04-14T04:45:47.369Z,18.90
2019-04-14T04:46:46.637Z,18.00
2019-04-14T04:47:46.992Z,18.60
2019-04-14T04:48:58.297Z,21.20
2019-04-14T04:49:46.865Z,16.90
2019-04-14T04:50:47.636Z,18.60
2019-04-14T04:51:46.706Z,19.60
2019-04-14T04:52:47.530Z,19.30
2019-04-14T04:53:46.731Z,18.80
2019-04-14T04:54:47.414Z,21.60
2019-04-14T04:55:46.756Z,17.60
2019-04-14T04:56:47.261Z,20.00
2019-04-14T04:57:48.029Z,19.30
2019-04-14T04:58:47.980Z,17.60
2019-04-14T04:59:47.426Z,19.80
2019-04-14T05:00:48.548Z,19.90
2019-04-14T05:01:47.353Z,21.60
2019-04-14T05:02:46.846Z,21.50
2019-04-14T05:03:47.105Z,18.70
2019-04-14T05:04:46.871Z,21.40
2019-04-14T05:05:47.064Z,19.00
2019-04-14T05:06:46.901Z,19.50
2019-04-14T05:07:46.942Z,17.20
2019-04-14T05:08:47.951Z,20.80
2019-04-14T05:09:46.965Z,19.30
2019-04-14T05:10:48.095Z,20.70
2019-04-14T05:11:47.020Z,21.50
2019-04-14T05:12:47.857Z,18.60
2019-04-14T05:13:46.991Z,17.90
2019-04-14T05:14:47.949Z,22.60
2019-04-14T05:15:47.012Z,21.80
2019-04-14T05:16:47.056Z,18.40
2019-04-14T05:17:47.403Z,20.90
2019-04-14T05:18:47.109Z,20.80
2019-04-14T05:19:47.569Z,21.40
2019-04-14T05:20:47.115Z,19.00
2019-04-14T05:21:47.412Z,20.10
2019-04-14T05:22:47.179Z,18.70
2019-04-14T05:23:47.397Z,20.10
2019-04-14T05:24:47.185Z,22.30
2019-04-14T05:25:47.372Z,19.80
2019-04-14T05:26:48.376Z,19.00
2019-04-14T05:27:47.374Z,21.10
2019-04-14T05:28:48.361Z,20.10
2019-04-14T05:29:47.272Z,20.60
2019-04-14T05:30:48.153Z,20.40
2019-04-14T05:31:47.220Z,20.80
2019-04-14T05:32:47.950Z,19.80
2019-04-14T05:33:47.244Z,22.40
2019-04-14T05:34:47.898Z,19.10
2019-04-14T05:35:47.270Z,19.30
2019-04-14T05:36:47.875Z,22.70
2019-04-14T05:37:48.555Z,21.10
2019-04-14T05:38:47.446Z,22.00
2019-04-14T05:39:48.298Z,21.60
2019-04-14T05:40:47.501Z,23.00
2019-04-14T05:41:56.845Z,22.00
2019-04-14T05:42:47.406Z,22.70
2019-04-14T05:43:52.040Z,19.50
2019-04-14T05:44:47.383Z,19.50
2019-04-14T05:45:48.019Z,21.00
2019-04-14T05:46:47.409Z,20.20
2019-04-14T05:47:47.896Z,22.60
2019-04-14T05:48:47.435Z,23.00
2019-04-14T05:49:51.295Z,19.80
2019-04-14T05:50:47.463Z,21.60
2019-04-14T05:51:48.137Z,21.50
2019-04-14T05:52:47.484Z,20.50
2019-04-14T05:53:48.074Z,19.10
2019-04-14T05:54:47.511Z,21.60
2019-04-14T05:55:48.203Z,20.60
2019-04-14T05:56:47.535Z,20.30
2019-04-14T05:57:48.127Z,19.60
2019-04-14T05:58:47.561Z,19.80
2019-04-14T05:59:48.355Z,20.60
2019-04-14T06:00:47.590Z,21.30
2019-04-14T06:01:48.765Z,21.10
2019-04-14T06:02:48.402Z,18.90
2019-04-14T06:03:47.622Z,19.80
2019-04-14T06:04:48.249Z,20.70
2019-04-14T06:05:47.662Z,18.40
2019-04-14T06:06:47.662Z,21.50
2019-04-14T06:07:47.676Z,21.10
2019-04-14T06:08:47.685Z,20.90
2019-04-14T06:09:47.699Z,20.20
2019-04-14T06:10:47.710Z,18.40
2019-04-14T06:11:47.725Z,17.90
2019-04-14T06:12:47.738Z,17.80
2019-04-14T06:13:47.761Z,19.50
2019-04-14T06:14:47.790Z,18.20
2019-04-14T06:15:47.784Z,18.00
2019-04-14T06:16:47.789Z,17.30
2019-04-14T06:17:47.803Z,18.20
2019-04-14T06:18:47.819Z,18.40
2019-04-14T06:19:47.827Z,20.10
2019-04-14T06:20:47.839Z,21.10
2019-04-14T06:21:47.853Z,20.00
2019-04-14T06:22:47.864Z,19.40
2019-04-14T06:23:47.881Z,20.20
2019-04-14T06:24:47.891Z,16.30
2019-04-14T06:25:47.904Z,16.80
2019-04-14T06:26:47.917Z,19.80
2019-04-14T06:27:47.932Z,18.70
2019-04-14T06:28:47.944Z,17.20
2019-04-14T06:29:47.958Z,17.20
2019-04-14T06:30:47.970Z,16.70
2019-04-14T06:31:47.986Z,16.70
2019-04-14T06:32:47.994Z,17.10
2019-04-14T06:33:48.005Z,17.10
2019-04-14T06:34:48.022Z,16.10
2019-04-14T06:35:48.033Z,15.10
2019-04-14T06:36:48.044Z,17.30
2019-04-14T06:37:48.058Z,16.30
2019-04-14T06:38:48.071Z,15.40
2019-04-14T06:39:48.087Z,16.20
2019-04-14T06:40:48.098Z,15.30
2019-04-14T06:41:48.111Z,15.20
2019-04-14T06:42:48.125Z,15.60
2019-04-14T06:43:49.075Z,15.40
2019-04-14T06:44:48.151Z,15.30
2019-04-14T06:45:48.164Z,14.10
2019-04-14T06:46:48.177Z,15.20
2019-04-14T06:47:48.188Z,15.20
2019-04-14T06:48:48.204Z,13.70
2019-04-14T06:49:49.202Z,14.20
2019-04-14T06:50:48.228Z,12.80
2019-04-14T06:51:48.240Z,13.30
2019-04-14T06:52:48.259Z,14.50
2019-04-14T06:53:48.271Z,13.40
2019-04-14T06:54:48.281Z,16.20
2019-04-14T06:55:48.293Z,13.00
2019-04-14T06:56:48.306Z,14.90
2019-04-14T06:57:48.320Z,15.30
2019-04-14T06:58:48.333Z,13.10
2019-04-14T06:59:48.347Z,16.50
2019-04-14T07:00:48.359Z,13.60
2019-04-14T07:01:48.373Z,16.70
2019-04-14T07:02:48.387Z,15.50
2019-04-14T07:03:48.401Z,15.40
2019-04-14T07:04:48.412Z,14.00
2019-04-14T07:05:48.424Z,14.30
2019-04-14T07:06:51.220Z,14.50
2019-04-14T07:07:56.928Z,15.00
2019-04-14T07:08:48.464Z,17.00
2019-04-14T07:09:48.482Z,16.00
2019-04-14T07:10:48.490Z,15.50
2019-04-14T07:11:48.503Z,15.10
2019-04-14T07:12:48.516Z,14.50
2019-04-14T07:13:48.534Z,14.80
2019-04-14T07:14:48.540Z,15.90
2019-04-14T07:15:48.556Z,14.60
2019-04-14T07:16:51.227Z,14.60
2019-04-14T07:17:48.581Z,15.10
2019-04-14T07:18:48.601Z,15.90
2019-04-14T07:20:01.047Z,16.70
2019-04-14T07:20:48.620Z,17.70
2019-04-14T07:21:48.637Z,16.90
2019-04-14T07:22:48.645Z,15.70
2019-04-14T07:23:48.663Z,17.50
2019-04-14T07:24:48.672Z,15.40
2019-04-14T07:25:48.686Z,17.10
2019-04-14T07:26:48.699Z,16.20
2019-04-14T07:27:48.711Z,17.60
2019-04-14T07:28:56.697Z,19.90
2019-04-14T07:29:48.739Z,15.80
2019-04-14T07:30:48.751Z,16.60
2019-04-14T07:31:48.765Z,16.30
2019-04-14T07:32:48.777Z,16.40
2019-04-14T07:33:48.795Z,15.80
2019-04-14T07:34:48.806Z,16.40
2019-04-14T07:35:48.818Z,16.70
2019-04-14T07:36:48.832Z,18.90
2019-04-14T07:37:48.861Z,17.60
2019-04-14T07:38:48.930Z,17.40
2019-04-14T07:39:48.948Z,17.40
2019-04-14T07:40:48.944Z,18.00
2019-04-14T07:41:48.936Z,20.60
2019-04-14T07:42:48.932Z,17.80
2019-04-14T07:43:48.986Z,19.20
2019-04-14T07:44:48.996Z,19.10
2019-04-14T07:45:49.005Z,19.30
2019-04-14T07:46:49.000Z,20.60
2019-04-14T07:47:48.998Z,20.10
2019-04-14T07:48:48.992Z,18.00
2019-04-14T07:49:49.003Z,18.30
2019-04-14T07:50:49.018Z,19.90
2019-04-14T07:51:49.030Z,21.90
2019-04-14T07:52:49.044Z,19.10
2019-04-14T07:53:49.057Z,20.30
2019-04-14T07:54:49.069Z,19.90
2019-04-14T07:55:49.083Z,19.00
2019-04-14T07:56:49.101Z,20.30
2019-04-14T07:57:49.115Z,20.30
2019-04-14T07:58:49.125Z,22.10
2019-04-14T07:59:49.136Z,21.00
2019-04-14T08:00:49.167Z,18.80
2019-04-14T08:01:49.162Z,21.40
2019-04-14T08:02:49.178Z,19.80
2019-04-14T08:03:49.187Z,21.30
2019-04-14T08:04:49.202Z,21.60
2019-04-14T08:05:49.215Z,20.30
2019-04-14T08:06:49.228Z,20.70
2019-04-14T08:07:49.241Z,21.40
2019-04-14T08:08:49.255Z,23.60
2019-04-14T08:09:49.269Z,22.60
2019-04-14T08:10:49.281Z,21.30
2019-04-14T08:11:49.295Z,20.70
2019-04-14T08:12:49.309Z,22.40
2019-04-14T08:13:49.322Z,19.80
2019-04-14T08:14:49.335Z,22.90
2019-04-14T08:15:49.368Z,22.10
2019-04-14T08:16:49.362Z,19.70
2019-04-14T08:17:49.376Z,21.30
2019-04-14T08:18:49.388Z,19.60
2019-04-14T08:19:49.401Z,23.10
2019-04-14T08:20:49.416Z,20.70
2019-04-14T08:21:49.428Z,20.40
2019-04-14T08:22:49.445Z,23.40
2019-04-14T08:23:49.454Z,20.50
2019-04-14T08:24:49.467Z,22.70
2019-04-14T08:25:49.481Z,22.10
2019-04-14T08:26:49.509Z,20.80
2019-04-14T08:27:49.510Z,19.90
2019-04-14T08:28:49.522Z,23.40
2019-04-14T08:29:49.536Z,23.20
2019-04-14T08:30:49.548Z,20.40
2019-04-14T08:31:49.564Z,21.90
2019-04-14T08:32:49.577Z,22.40
2019-04-14T08:33:49.592Z,21.00
2019-04-14T08:34:49.602Z,21.00
2019-04-14T08:35:49.617Z,22.40
2019-04-14T08:36:49.630Z,24.50
2019-04-14T08:37:49.645Z,21.80
2019-04-14T08:38:49.657Z,22.00
2019-04-14T08:39:49.673Z,22.20
2019-04-14T08:40:49.686Z,22.20
2019-04-14T08:41:49.701Z,20.60
2019-04-14T08:42:49.785Z,22.00
2019-04-14T08:43:49.726Z,22.80
2019-04-14T08:44:49.741Z,20.90
2019-04-14T08:45:49.755Z,22.70
2019-04-14T08:46:49.767Z,23.80
2019-04-14T08:47:49.781Z,21.70
2019-04-14T08:48:49.808Z,22.00
2019-04-14T08:49:49.811Z,24.90
2019-04-14T08:50:49.821Z,24.80
2019-04-14T08:51:49.840Z,20.70
2019-04-14T08:52:49.849Z,25.60
2019-04-14T08:53:49.866Z,22.30
2019-04-14T08:54:49.883Z,20.00
2019-04-14T08:55:49.892Z,25.00
2019-04-14T08:56:49.906Z,21.70
2019-04-14T08:57:49.921Z,21.40
2019-04-14T08:58:49.936Z,20.50
2019-04-14T08:59:49.948Z,20.90
2019-04-14T09:00:49.964Z,22.50
2019-04-14T09:01:49.978Z,24.30
2019-04-14T09:02:49.992Z,24.30
2019-04-14T09:03:50.006Z,22.90
2019-04-14T09:04:50.022Z,24.60
2019-04-14T09:05:50.036Z,22.10
2019-04-14T09:06:50.050Z,23.20
2019-04-14T09:07:50.064Z,22.60
2019-04-14T09:08:50.079Z,19.70
2019-04-14T09:09:50.094Z,21.90
2019-04-14T09:10:50.112Z,21.10
2019-04-14T09:11:50.121Z,21.70
2019-04-14T09:12:50.136Z,22.70
2019-04-14T09:13:50.151Z,20.20
2019-04-14T09:14:56.947Z,21.80
2019-04-14T09:15:50.183Z,21.60
2019-04-14T09:16:50.197Z,21.50
2019-04-14T09:17:50.209Z,24.00
2019-04-14T09:18:50.223Z,20.80
2019-04-14T09:19:50.239Z,22.30
2019-04-14T09:20:52.542Z,23.40
2019-04-14T09:21:50.267Z,22.10
2019-04-14T09:22:50.286Z,22.00
2019-04-14T09:23:50.296Z,21.40
2019-04-14T09:24:50.314Z,23.30
2019-04-14T09:25:50.325Z,23.70
2019-04-14T09:26:50.338Z,23.20
2019-04-14T09:27:50.352Z,23.60
2019-04-14T09:28:50.367Z,22.90
2019-04-14T09:29:52.290Z,21.80
2019-04-14T09:30:50.397Z,20.60
2019-04-14T09:31:50.424Z,21.90
2019-04-14T09:32:50.426Z,22.30
2019-04-14T09:33:50.439Z,21.90
2019-04-14T09:34:50.459Z,23.40
2019-04-14T09:35:50.468Z,21.50
2019-04-14T09:36:50.483Z,21.00
2019-04-14T09:37:50.497Z,22.70
2019-04-14T09:38:50.511Z,21.70
2019-04-14T09:39:50.527Z,23.60
2019-04-14T09:40:50.546Z,21.30
2019-04-14T09:41:50.556Z,24.30
2019-04-14T09:42:50.571Z,22.40
2019-04-14T09:43:50.587Z,22.90
2019-04-14T09:44:50.603Z,22.80
2019-04-14T09:45:50.615Z,27.40
2019-04-14T09:46:50.631Z,22.90
2019-04-14T09:47:50.644Z,22.40
2019-04-14T09:48:50.658Z,19.60
2019-04-14T09:49:50.675Z,21.10
2019-04-14T09:50:50.712Z,25.00
2019-04-14T09:51:50.768Z,21.10
2019-04-14T09:52:50.775Z,22.40
2019-04-14T09:53:50.768Z,21.60
2019-04-14T09:54:50.833Z,23.30
2019-04-14T09:55:50.840Z,22.90
2019-04-14T09:56:50.834Z,22.00
2019-04-14T09:57:50.837Z,21.60
2019-04-14T09:58:50.830Z,20.60
2019-04-14T09:59:50.825Z,22.80
2019-04-14T10:00:50.834Z,25.70
2019-04-14T10:01:50.862Z,20.60
2019-04-14T10:02:50.865Z,22.40
2019-04-14T10:03:50.882Z,21.60
2019-04-14T10:04:50.896Z,24.90
2019-04-14T10:05:50.911Z,20.30
2019-04-14T10:06:51.125Z,21.90
2019-04-14T10:07:50.945Z,22.00
2019-04-14T10:08:50.956Z,22.40
2019-04-14T10:09:50.974Z,23.30
2019-04-14T10:10:50.985Z,22.90
2019-04-14T10:11:54.682Z,22.30
2019-04-14T10:12:51.013Z,19.90
2019-04-14T10:13:51.031Z,22.20
2019-04-14T10:14:51.047Z,20.70
2019-04-14T10:15:51.060Z,21.60
2019-04-14T10:16:51.074Z,20.70
2019-04-14T10:17:51.090Z,20.40
2019-04-14T10:18:51.103Z,24.20
2019-04-14T10:19:51.122Z,21.90
2019-04-14T10:20:51.135Z,24.20
2019-04-14T10:21:51.150Z,21.20
2019-04-14T10:22:51.163Z,21.50
2019-04-14T10:23:51.176Z,21.40
2019-04-14T10:24:51.193Z,19.70
2019-04-14T10:25:51.205Z,22.30
2019-04-14T10:26:51.230Z,21.30
2019-04-14T10:27:51.237Z,22.30
2019-04-14T10:28:51.254Z,23.10
2019-04-14T10:29:51.268Z,21.60
2019-04-14T10:30:51.280Z,22.70
2019-04-14T10:31:51.342Z,23.20
2019-04-14T10:32:51.311Z,20.20
2019-04-14T10:33:51.328Z,23.10
2019-04-14T10:34:51.342Z,21.40
2019-04-14T10:35:51.356Z,22.40
2019-04-14T10:36:51.372Z,22.80
2019-04-14T10:37:51.385Z,21.70
2019-04-14T10:38:51.404Z,22.80
2019-04-14T10:39:51.417Z,26.60
2019-04-14T10:40:51.433Z,22.30
2019-04-14T10:41:51.445Z,24.00
2019-04-14T10:42:51.457Z,20.70
2019-04-14T10:43:51.475Z,20.20
2019-04-14T10:44:51.488Z,23.20
2019-04-14T10:45:51.501Z,22.30
2019-04-14T10:46:51.518Z,20.50
2019-04-14T10:47:51.533Z,23.90
2019-04-14T10:48:51.552Z,22.60
2019-04-14T10:49:51.562Z,19.70
2019-04-14T10:50:51.575Z,22.10
2019-04-14T10:51:51.591Z,21.10
2019-04-14T10:52:51.605Z,22.30
2019-04-14T10:53:51.621Z,21.30
2019-04-14T10:54:51.634Z,19.80
2019-04-14T10:55:51.654Z,23.40
2019-04-14T10:56:51.665Z,20.30
2019-04-14T10:57:51.681Z,21.40
2019-04-14T10:58:51.693Z,22.40
2019-04-14T10:59:51.710Z,21.70
2019-04-14T11:00:51.724Z,23.10
2019-04-14T11:01:51.738Z,21.60
2019-04-14T11:02:51.752Z,21.50
2019-04-14T11:03:51.768Z,24.00
2019-04-14T11:04:51.782Z,25.50
2019-04-14T11:05:51.799Z,25.00
2019-04-14T11:06:51.811Z,22.20
2019-04-14T11:07:51.826Z,22.30
2019-04-14T11:08:51.841Z,24.50
2019-04-14T11:09:53.848Z,20.90
2019-04-14T11:10:51.871Z,25.00
2019-04-14T11:11:51.886Z,22.40
2019-04-14T11:12:51.901Z,22.70
2019-04-14T11:13:51.915Z,22.50
2019-04-14T11:14:51.930Z,21.90
2019-04-14T11:15:51.944Z,20.80
2019-04-14T11:16:51.959Z,22.00
2019-04-14T11:17:51.976Z,20.70
2019-04-14T11:18:51.987Z,22.00
2019-04-14T11:19:52.004Z,19.30
2019-04-14T11:20:52.021Z,20.60
2019-04-14T11:21:52.032Z,22.00
2019-04-14T11:23:02.721Z,25.00
2019-04-14T11:23:52.063Z,23.20
2019-04-14T11:24:52.128Z,22.40
2019-04-14T11:25:52.095Z,22.20
2019-04-14T11:26:52.109Z,22.30
2019-04-14T11:27:52.122Z,22.60
2019-04-14T11:28:52.140Z,21.10
2019-04-14T11:29:54.049Z,20.80
2019-04-14T11:30:52.166Z,22.40
2019-04-14T11:31:52.182Z,22.50
2019-04-14T11:32:52.195Z,23.70
2019-04-14T11:33:52.213Z,22.30
2019-04-14T11:34:52.228Z,20.20
2019-04-14T11:35:52.242Z,20.70
2019-04-14T11:36:52.256Z,21.00
2019-04-14T11:37:52.275Z,20.10
2019-04-14T11:38:52.287Z,22.50
2019-04-14T11:39:52.307Z,20.00
2019-04-14T11:40:52.321Z,22.80
2019-04-14T11:41:52.335Z,22.70
2019-04-14T11:42:52.797Z,20.90
2019-04-14T11:43:52.372Z,18.30
2019-04-14T11:44:52.394Z,20.50
2019-04-14T11:45:52.393Z,21.30
2019-04-14T11:46:52.421Z,18.60
2019-04-14T11:47:52.426Z,22.60
2019-04-14T11:48:52.440Z,23.30
2019-04-14T11:49:52.456Z,20.30
2019-04-14T11:50:52.472Z,23.50
2019-04-14T11:51:55.593Z,19.20
2019-04-14T11:52:52.504Z,20.30
2019-04-14T11:53:52.519Z,21.90
2019-04-14T11:54:52.562Z,18.20
2019-04-14T11:55:52.619Z,20.80
2019-04-14T11:56:52.618Z,20.30
2019-04-14T11:57:52.645Z,22.40
2019-04-14T11:58:52.657Z,22.40
2019-04-14T11:59:52.674Z,17.10
2019-04-14T12:00:52.689Z,18.30
2019-04-14T12:01:52.671Z,24.20
2019-04-14T12:02:52.682Z,19.00
2019-04-14T12:03:52.677Z,19.00
2019-04-14T12:04:52.693Z,16.70
2019-04-14T12:05:52.710Z,18.20
2019-04-14T12:06:52.726Z,18.90
2019-04-14T12:07:52.741Z,16.80
2019-04-14T12:08:52.760Z,16.20
2019-04-14T12:09:52.774Z,18.30
2019-04-14T12:10:52.790Z,18.30
2019-04-14T12:11:52.807Z,17.40
2019-04-14T12:12:52.825Z,18.80
2019-04-14T12:13:52.841Z,17.10
2019-04-14T12:14:52.856Z,17.70
2019-04-14T12:15:52.875Z,17.00
2019-04-14T12:16:52.892Z,16.90
2019-04-14T12:17:52.910Z,16.60
2019-04-14T12:18:52.923Z,15.90
2019-04-14T12:19:52.941Z,15.00
2019-04-14T12:20:52.959Z,17.60
2019-04-14T12:21:52.978Z,18.00
2019-04-14T12:22:52.990Z,15.60
2019-04-14T12:23:53.010Z,18.40
2019-04-14T12:24:53.031Z,17.30
2019-04-14T12:26:04.688Z,18.00
2019-04-14T12:26:53.062Z,14.30
2019-04-14T12:27:53.549Z,16.50
2019-04-14T12:28:53.702Z,12.50
2019-04-14T12:29:54.380Z,17.60
2019-04-14T12:30:53.254Z,15.60
2019-04-14T12:31:53.156Z,13.80
2019-04-14T12:32:53.164Z,17.50
2019-04-14T12:33:53.182Z,15.20
2019-04-14T12:34:53.200Z,13.70
2019-04-14T12:35:53.217Z,15.40
2019-04-14T12:36:53.237Z,15.70
2019-04-14T12:37:53.253Z,15.60
2019-04-14T12:38:53.270Z,14.50
2019-04-14T12:39:53.286Z,18.30
2019-04-14T12:40:55.933Z,15.30
2019-04-14T12:41:53.328Z,14.30
2019-04-14T12:42:53.341Z,17.30
2019-04-14T12:43:53.361Z,14.90
2019-04-14T12:44:53.383Z,16.40
2019-04-14T12:45:53.396Z,18.30
2019-04-14T12:46:53.413Z,17.50
2019-04-14T12:47:53.433Z,14.20
2019-04-14T12:48:53.450Z,14.80
2019-04-14T12:49:53.466Z,14.40
2019-04-14T12:50:53.486Z,14.80
2019-04-14T12:51:53.508Z,16.50
2019-04-14T12:52:53.523Z,14.50
2019-04-14T12:53:53.544Z,13.00
2019-04-14T12:54:53.558Z,15.20
2019-04-14T12:55:53.580Z,13.80
2019-04-14T12:56:53.596Z,14.40
2019-04-14T12:57:53.615Z,16.40
2019-04-14T12:58:53.637Z,14.90
2019-04-14T12:59:53.654Z,14.30
2019-04-14T13:00:53.680Z,14.30
2019-04-14T13:01:53.693Z,15.90
2019-04-14T13:02:53.711Z,16.00
2019-04-14T13:03:53.731Z,14.80
2019-04-14T13:04:55.342Z,14.00
2019-04-14T13:05:53.766Z,16.00
2019-04-14T13:06:53.787Z,15.10
2019-04-14T13:07:53.804Z,15.00
2019-04-14T13:08:53.827Z,15.30